Time;durP1;ratioP1;P1;durP2;ratioP2;P2;SDS_P1;SDS_P2;PMS_P1;PMS_P2;Temp;Humidity;BMP_temperature;BMP_pressure;BME280_temperature;BME280_humidity;BME280_pressure;Samples;Min_cycle;Max_cycle;Signal;HPM_P1;HPM_P2
2023/12/23 00:00:18;;;;;;;3.58;1.20;;;8.30;99.90;;;7.50;100.00;96634.03;5006013;28;20029;-36
2023/12/23 00:02:44;;;;;;;3.50;0.80;;;8.20;99.90;;;7.53;100.00;96652.28;5011521;28;20085;-36
2023/12/23 00:05:10;;;;;;;3.65;0.80;;;8.20;99.90;;;7.48;100.00;96662.94;5008542;28;20188;-36
2023/12/23 00:07:35;;;;;;;3.58;0.80;;;8.20;99.90;;;7.44;100.00;96656.94;5009509;28;20033;-36
2023/12/23 00:10:03;;;;;;;3.45;0.70;;;8.10;99.90;;;7.44;100.00;96653.47;5010462;28;20458;-36
2023/12/23 00:12:29;;;;;;;4.05;1.00;;;8.10;99.90;;;7.45;100.00;96665.69;5005886;28;20041;-36
2023/12/23 00:14:55;;;;;;;2.90;0.63;;;8.10;99.90;;;7.43;100.00;96657.03;5003566;28;20073;-37
2023/12/23 00:17:21;;;;;;;2.90;0.90;;;8.10;99.90;;;7.46;100.00;96664.75;5012153;28;20167;-36
2023/12/23 00:19:47;;;;;;;4.55;0.68;;;8.10;99.90;;;7.51;100.00;96654.97;5014430;28;20030;-36
2023/12/23 00:22:13;;;;;;;1.50;0.70;;;8.10;99.90;;;7.47;100.00;96673.50;5012125;28;20623;-36
2023/12/23 00:24:38;;;;;;;3.17;0.65;;;8.10;99.90;;;7.44;100.00;96683.19;5017399;28;20032;-36
2023/12/23 00:27:04;;;;;;;2.75;0.50;;;8.10;99.90;;;7.47;100.00;96674.38;5008930;28;20040;-36
2023/12/23 00:29:30;;;;;;;1.63;0.60;;;8.20;99.90;;;7.54;100.00;96702.09;5013389;28;20412;-36
2023/12/23 00:31:56;;;;;;;0.88;0.55;;;8.20;99.90;;;7.52;100.00;96692.53;5012491;28;20037;-37
2023/12/23 00:34:22;;;;;;;2.03;0.70;;;8.20;99.90;;;7.57;100.00;96674.88;5013163;28;20700;-36
2023/12/23 00:36:47;;;;;;;4.70;0.70;;;8.20;99.90;;;7.54;100.00;96683.72;5010188;28;20151;-36
2023/12/23 00:39:15;;;;;;;4.03;0.95;;;8.20;99.90;;;7.47;100.00;96676.97;5011821;28;20280;-36
2023/12/23 00:41:41;;;;;;;3.72;0.80;;;8.20;99.90;;;7.48;100.00;96709.31;5009612;28;20026;-35
2023/12/23 00:44:07;;;;;;;2.03;0.80;;;8.10;99.90;;;7.35;100.00;96704.50;5009090;28;20037;-36
2023/12/23 00:46:34;;;;;;;2.58;0.82;;;8.00;99.90;;;7.19;100.00;96700.69;4993901;28;20214;-36
2023/12/23 00:48:59;;;;;;;5.35;1.15;;;7.90;99.90;;;7.07;100.00;96697.59;5008338;28;20060;-36
2023/12/23 00:51:25;;;;;;;2.42;0.80;;;7.80;99.90;;;7.08;100.00;96712.41;4992045;28;20025;-36
2023/12/23 00:53:51;;;;;;;2.35;0.80;;;7.70;99.90;;;7.05;100.00;96741.38;5006588;28;20033;-36
2023/12/23 00:56:20;;;;;;;2.53;0.95;;;7.70;99.90;;;7.08;100.00;96717.66;5004175;28;20033;-36
2023/12/23 00:58:47;;;;;;;7.97;1.00;;;7.70;99.90;;;7.06;100.00;96711.59;5011326;28;20091;-37
2023/12/23 01:01:13;;;;;;;2.63;0.70;;;7.70;99.90;;;7.15;100.00;96720.09;5011988;28;20021;-37
2023/12/23 01:03:38;;;;;;;1.98;0.60;;;7.80;99.90;;;7.10;100.00;96706.25;5000723;28;20040;-36
2023/12/23 01:06:04;;;;;;;4.13;0.80;;;7.80;99.90;;;7.03;100.00;96710.84;5010267;28;20549;-37
2023/12/23 01:08:30;;;;;;;3.13;0.75;;;7.80;99.90;;;7.06;100.00;96719.47;5014563;28;20034;-37
2023/12/23 01:10:56;;;;;;;2.22;0.50;;;7.80;99.90;;;7.00;100.00;96732.81;5012768;28;20037;-37
2023/12/23 01:13:22;;;;;;;2.53;0.63;;;7.70;99.90;;;7.04;100.00;96716.06;5009146;28;20345;-37
2023/12/23 01:15:47;;;;;;;3.53;0.70;;;7.80;99.90;;;7.15;100.00;96739.28;5014523;28;20136;-36
2023/12/23 01:18:13;;;;;;;4.20;0.60;;;7.80;99.90;;;7.12;100.00;96726.28;5014986;28;20029;-37
2023/12/23 01:20:40;;;;;;;2.20;0.60;;;7.80;99.90;;;7.21;100.00;96749.59;5014450;28;20037;-37
2023/12/23 01:23:06;;;;;;;2.55;0.70;;;7.80;99.90;;;7.23;100.00;96757.38;5010023;28;20033;-36
2023/12/23 01:25:31;;;;;;;2.97;1.05;;;7.90;99.90;;;7.26;100.00;96763.38;5011555;28;20611;-36
2023/12/23 01:28:04;;;;;;;1.67;0.50;;;7.90;99.90;;;7.23;100.00;96762.63;5011022;28;20037;-36
2023/12/23 01:30:30;;;;;;;;;;;7.90;99.90;;;7.18;100.00;96773.28;5014871;28;20041;-36
2023/12/23 01:32:56;;;;;;;1.70;0.60;;;7.90;99.90;;;7.16;100.00;96774.22;5014644;28;19928;-36
2023/12/23 01:35:22;;;;;;;3.20;0.80;;;7.90;99.90;;;7.20;100.00;96800.31;5015876;28;20033;-36
2023/12/23 01:37:47;;;;;;;3.42;0.88;;;7.80;99.90;;;7.13;100.00;96779.59;5016824;28;20045;-36
2023/12/23 01:40:13;;;;;;;4.88;0.68;;;7.80;99.90;;;7.08;100.00;96791.06;5013356;28;20065;-36
2023/12/23 01:42:39;;;;;;;4.55;0.80;;;7.80;99.90;;;7.06;100.00;96784.16;5011746;28;20236;-36
2023/12/23 01:45:06;;;;;;;5.65;0.70;;;7.70;99.90;;;7.02;100.00;96778.16;4991921;28;20035;-36
2023/12/23 01:47:34;;;;;;;4.35;0.80;;;7.70;99.90;;;6.97;100.00;96785.31;5014506;28;20025;-36
2023/12/23 01:50:03;;;;;;;2.40;0.50;;;7.70;99.90;;;6.94;100.00;96784.56;5013899;28;20022;-36
2023/12/23 01:52:30;;;;;;;5.78;0.80;;;7.60;99.90;;;6.90;100.00;96778.56;4996321;28;20112;-36
2023/12/23 01:54:56;;;;;;;2.45;0.80;;;7.60;99.90;;;6.96;100.00;96780.97;5000918;28;20520;-36
2023/12/23 01:57:22;;;;;;;5.03;1.08;;;7.60;99.90;;;6.99;100.00;96801.00;5012968;28;20158;-36
2023/12/23 01:59:48;;;;;;;3.10;1.20;;;7.60;99.90;;;6.98;100.00;96796.66;5014559;28;20033;-36
2023/12/23 02:02:15;;;;;;;5.43;1.08;;;7.70;99.90;;;7.05;100.00;96790.31;5014250;28;20197;-37
2023/12/23 02:04:41;;;;;;;8.57;1.15;;;7.70;99.90;;;7.12;100.00;96815.41;5014335;28;20033;-36
2023/12/23 02:07:07;;;;;;;7.22;1.00;;;7.80;99.90;;;7.07;100.00;96781.50;5015119;28;20022;-36
2023/12/23 02:09:33;;;;;;;4.75;1.33;;;7.80;99.90;;;7.07;100.00;96780.66;5010383;28;20034;-36
2023/12/23 02:12:06;;;;;;;6.70;1.27;;;7.80;99.90;;;7.15;100.00;96798.75;5013734;28;20087;-36
2023/12/23 02:14:58;;;;;;;5.13;1.00;;;7.80;99.90;;;7.09;100.00;96807.69;4998569;28;20532;-36
2023/12/23 02:17:24;;;;;;;7.78;1.48;;;7.80;99.90;;;7.11;100.00;96805.00;5014021;28;20029;-36
2023/12/23 02:19:50;;;;;;;2.88;1.00;;;7.80;99.90;;;7.16;100.00;96789.97;5013860;28;20751;-36
2023/12/23 02:22:15;;;;;;;9.45;1.20;;;7.80;99.90;;;7.17;100.00;96792.53;5011594;28;20029;-36
2023/12/23 02:24:41;;;;;;;5.40;1.08;;;7.80;99.90;;;7.13;100.00;96790.94;5000407;28;20514;-36
2023/12/23 02:27:14;;;;;;;2.17;0.80;;;7.80;99.90;;;7.08;100.00;96796.31;5013250;28;20029;-36
2023/12/23 02:29:41;;;;;;;4.53;0.70;;;7.80;99.90;;;7.07;100.00;96810.34;5011887;28;20053;-36
2023/12/23 02:32:09;;;;;;;7.15;1.08;;;7.70;99.90;;;7.10;100.00;96793.66;5014038;28;20494;-36
2023/12/23 02:34:36;;;;;;;8.63;0.90;;;7.70;99.90;;;7.05;100.00;96788.56;5011571;28;20057;-36
2023/12/23 02:37:01;;;;;;;1.90;0.68;;;7.70;99.90;;;6.93;100.00;96780.22;5010565;28;20449;-36
2023/12/23 02:39:27;;;;;;;6.45;0.80;;;7.70;99.90;;;6.93;100.00;96799.44;5013002;28;20112;-36
2023/12/23 02:41:53;;;;;;;4.30;0.95;;;7.60;99.90;;;6.95;100.00;96808.13;5015039;28;20025;-36
2023/12/23 02:44:19;;;;;;;5.72;0.77;;;7.60;99.90;;;6.96;100.00;96819.44;5014183;28;20075;-36
2023/12/23 02:46:44;;;;;;;2.78;0.70;;;7.60;99.90;;;6.96;100.00;96822.06;5012223;28;20037;-36
2023/12/23 02:49:10;;;;;;;2.88;0.50;;;7.70;99.90;;;6.96;100.00;96819.44;5011139;28;20084;-36
2023/12/23 02:51:36;;;;;;;1.95;0.90;;;7.60;99.90;;;6.91;100.00;96813.50;5007994;28;20049;-36
2023/12/23 02:54:01;;;;;;;3.15;0.65;;;7.60;99.90;;;6.99;100.00;96814.97;5013915;28;20041;-36
2023/12/23 02:56:27;;;;;;;7.65;1.02;;;7.70;99.90;;;6.96;100.00;96825.53;5012382;28;20037;-36
2023/12/23 02:58:53;;;;;;;4.50;1.17;;;7.70;99.90;;;7.06;100.00;96826.13;5014870;28;20164;-36
2023/12/23 03:01:20;;;;;;;6.22;1.13;;;7.70;99.90;;;7.10;100.00;96835.59;5013340;28;20048;-36
2023/12/23 03:03:46;;;;;;;2.78;1.33;;;7.70;99.90;;;7.13;100.00;96830.25;5013499;28;20079;-36
2023/12/23 03:06:15;;;;;;;4.72;1.00;;;7.80;99.90;;;7.13;100.00;96839.91;5009828;28;20041;-37
2023/12/23 03:08:42;;;;;;;2.38;0.80;;;7.80;99.90;;;7.10;100.00;96824.25;5010900;28;20091;-36
2023/12/23 03:11:08;;;;;;;4.47;1.23;;;7.80;99.90;;;7.20;100.00;96823.91;5012751;28;20092;-36
2023/12/23 03:13:34;;;;;;;1.50;0.77;;;7.70;99.90;;;7.13;100.00;96837.28;5011434;28;20490;-36
2023/12/23 03:15:59;;;;;;;5.47;1.00;;;7.80;99.90;;;7.13;100.00;96832.03;5012743;28;20965;-37
2023/12/23 03:18:25;;;;;;;5.90;1.05;;;7.80;99.90;;;7.09;100.00;96818.16;5016546;28;20036;-37
2023/12/23 03:20:51;;;;;;;4.25;0.80;;;7.80;99.90;;;7.13;100.00;96821.53;5012631;28;20034;-37
2023/12/23 03:23:17;;;;;;;2.47;0.85;;;7.80;99.90;;;7.23;100.00;96826.44;5007058;28;20245;-36
2023/12/23 03:25:42;;;;;;;3.47;1.15;;;7.80;99.90;;;7.17;100.00;96833.66;5009664;28;20489;-36
2023/12/23 03:28:09;;;;;;;3.83;1.20;;;7.90;99.90;;;7.12;100.00;96831.16;5013357;28;20112;-36
2023/12/23 03:30:34;;;;;;;4.22;0.90;;;7.80;99.90;;;7.12;100.00;96831.16;5010952;28;20138;-36
2023/12/23 03:33:00;;;;;;;5.22;1.10;;;7.80;99.90;;;7.15;100.00;96824.97;5014264;28;20037;-36
2023/12/23 03:35:26;;;;;;;1.85;0.80;;;7.80;99.90;;;7.19;100.00;96831.81;4996512;28;20036;-37
2023/12/23 03:37:52;;;;;;;2.13;0.85;;;7.80;99.90;;;7.18;100.00;96824.88;5015351;28;20032;-37
2023/12/23 03:40:17;;;;;;;3.58;0.90;;;7.80;99.90;;;7.18;100.00;96817.00;5010982;28;20497;-37
2023/12/23 03:42:43;;;;;;;3.75;0.90;;;7.80;99.90;;;7.10;100.00;96811.16;5011759;28;20034;-36
2023/12/23 03:45:09;;;;;;;2.97;0.93;;;7.80;99.90;;;7.16;100.00;96830.16;5012769;28;20563;-37
2023/12/23 03:47:35;;;;;;;6.28;1.25;;;7.80;99.90;;;7.16;100.00;96843.28;5013852;28;20063;-36
2023/12/23 03:50:01;;;;;;;4.05;0.98;;;7.80;99.90;;;7.20;100.00;96826.53;5007892;28;20111;-37
2023/12/23 03:52:27;;;;;;;4.88;0.73;;;7.80;99.90;;;7.15;100.00;96827.59;4987585;28;20060;-37
2023/12/23 03:54:53;;;;;;;2.97;1.05;;;7.80;99.90;;;7.15;100.00;96838.94;5011709;28;20073;-37
2023/12/23 03:57:19;;;;;;;4.38;0.82;;;7.80;99.90;;;7.12;100.00;96835.56;5012253;28;20385;-37
2023/12/23 03:59:44;;;;;;;2.80;0.73;;;7.80;99.90;;;7.14;100.00;96815.38;5007535;28;20643;-37
2023/12/23 04:02:10;;;;;;;2.63;0.88;;;7.80;99.90;;;7.15;100.00;96812.72;5012483;28;20037;-37
2023/12/23 04:04:39;;;;;;;2.65;0.82;;;7.80;99.90;;;7.18;100.00;96815.25;5009501;28;20320;-37
2023/12/23 04:07:05;;;;;;;3.80;0.90;;;7.80;99.90;;;7.13;100.00;96805.81;5009037;28;20057;-37
2023/12/23 04:09:30;;;;;;;4.68;0.50;;;7.80;99.90;;;7.15;100.00;96788.25;5010065;28;20083;-37
2023/12/23 04:11:56;;;;;;;4.10;0.88;;;7.80;99.90;;;7.08;100.00;96800.72;5010606;28;20045;-37
2023/12/23 04:14:22;;;;;;;3.33;0.77;;;7.70;99.90;;;7.07;100.00;96786.75;5007402;28;20396;-38
2023/12/23 04:16:48;;;;;;;4.43;0.82;;;7.70;99.90;;;7.07;100.00;96797.22;5012140;28;20036;-37
2023/12/23 04:19:13;;;;;;;3.70;1.00;;;7.70;99.90;;;7.04;100.00;96791.25;5010852;28;20029;-37
2023/12/23 04:21:40;;;;;;;3.17;0.70;;;7.70;99.90;;;7.01;100.00;96797.41;5012535;28;20032;-38
2023/12/23 04:24:06;;;;;;;4.35;0.80;;;7.70;99.90;;;7.02;100.00;96783.41;5006000;28;20284;-37
2023/12/23 04:26:33;;;;;;;5.63;0.90;;;7.60;99.90;;;6.99;100.00;96803.63;5013723;28;20118;-38
2023/12/23 04:28:58;;;;;;;3.47;0.90;;;7.70;99.90;;;6.96;100.00;96780.13;5012534;28;20517;-36
2023/12/23 04:31:24;;;;;;;3.42;0.98;;;7.60;99.90;;;6.97;100.00;96784.47;5009780;28;20033;-36
2023/12/23 04:33:50;;;;;;;2.42;0.88;;;7.70;99.90;;;7.00;100.00;96790.47;5014102;28;20033;-37
2023/12/23 04:36:18;;;;;;;1.67;0.63;;;7.60;99.90;;;7.02;100.00;96783.41;5008379;28;20493;-37
2023/12/23 04:38:44;;;;;;;2.95;0.95;;;7.70;99.90;;;6.97;100.00;96780.09;5010760;28;20041;-36
2023/12/23 04:41:10;;;;;;;3.28;0.98;;;7.70;99.90;;;7.05;100.00;96782.44;4993037;28;20029;-36
2023/12/23 04:43:36;;;;;;;2.53;0.70;;;7.70;99.90;;;7.02;100.00;96772.94;5006691;28;20037;-37
2023/12/23 04:46:02;;;;;;;1.13;0.70;;;7.70;99.90;;;7.07;100.00;96768.41;5010646;28;20030;-36
2023/12/23 04:48:28;;;;;;;1.33;0.60;;;7.70;99.90;;;7.09;100.00;96768.34;4995910;28;20036;-37
2023/12/23 04:50:54;;;;;;;2.75;0.80;;;7.70;99.90;;;7.08;100.00;96766.63;5014025;28;20033;-37
2023/12/23 04:53:25;;;;;;;4.50;0.80;;;7.70;99.90;;;7.07;100.00;96776.25;5011486;28;20485;-37
2023/12/23 04:55:50;;;;;;;1.33;0.60;;;7.80;99.90;;;7.15;100.00;96778.63;5012481;28;20499;-38
2023/12/23 04:58:16;;;;;;;3.42;1.25;;;7.80;99.90;;;7.15;100.00;96790.88;4993460;28;20041;-37
2023/12/23 05:00:42;;;;;;;1.05;0.50;;;7.80;99.90;;;7.17;100.00;96781.19;5007742;28;20029;-37
2023/12/23 05:03:08;;;;;;;4.22;0.60;;;7.80;99.90;;;7.13;100.00;96784.84;5008697;28;20037;-37
2023/12/23 05:05:34;;;;;;;1.63;0.47;;;7.80;99.90;;;7.11;100.00;96803.25;5012446;28;20044;-36
2023/12/23 05:07:59;;;;;;;1.77;0.50;;;7.80;99.90;;;7.15;100.00;96780.41;5009723;28;20050;-37
2023/12/23 05:10:25;;;;;;;3.20;0.60;;;7.80;99.90;;;7.23;100.00;96774.00;5009833;28;20030;-37
2023/12/23 05:12:50;;;;;;;1.77;0.35;;;7.80;99.90;;;7.21;100.00;96765.31;5009402;28;20029;-36
2023/12/23 05:15:16;;;;;;;0.45;0.30;;;7.90;99.90;;;7.22;100.00;96766.16;5007259;28;20037;-37
2023/12/23 05:17:42;;;;;;;2.22;0.50;;;7.90;99.90;;;7.24;100.00;96774.84;5011445;28;20472;-37
2023/12/23 05:20:09;;;;;;;1.65;0.55;;;7.90;99.90;;;7.26;100.00;96778.25;5011794;28;20029;-37
2023/12/23 05:22:35;;;;;;;2.22;0.40;;;7.90;99.90;;;7.22;100.00;96769.63;5010495;28;20032;-37
2023/12/23 05:25:01;;;;;;;2.17;0.52;;;7.90;99.90;;;7.19;100.00;96750.53;5008702;28;20041;-36
2023/12/23 05:27:27;;;;;;;1.25;0.50;;;7.90;99.90;;;7.22;100.00;96769.63;5012298;28;20452;-38
2023/12/23 05:29:55;;;;;;;2.95;0.52;;;7.90;99.90;;;7.15;100.00;96762.03;5010936;28;20548;-38
2023/12/23 05:32:21;;;;;;;1.95;0.45;;;7.90;99.90;;;7.11;100.00;96768.31;5011890;28;20037;-37
2023/12/23 05:34:46;;;;;;;1.30;0.22;;;7.90;99.90;;;7.19;100.00;96776.75;5011851;28;20057;-36
2023/12/23 05:37:12;;;;;;;2.42;0.50;;;7.90;99.90;;;7.21;100.00;96780.19;5011202;28;20040;-37
2023/12/23 05:39:39;;;;;;;0.73;0.35;;;7.80;99.90;;;7.17;100.00;96782.03;5009949;28;20157;-36
2023/12/23 05:42:05;;;;;;;1.25;0.35;;;7.80;99.90;;;7.14;100.00;96774.31;5011288;28;20025;-38
2023/12/23 05:44:30;;;;;;;1.60;0.22;;;7.80;99.90;;;7.21;100.00;96777.56;5008264;28;20034;-37
2023/12/23 05:46:56;;;;;;;2.05;0.40;;;7.80;99.90;;;7.17;100.00;96786.44;5012277;28;20029;-36
2023/12/23 05:49:22;;;;;;;0.50;0.10;;;7.80;99.90;;;7.25;100.00;96761.69;5012159;28;20034;-37
2023/12/23 05:51:48;;;;;;;2.00;0.30;;;7.90;99.90;;;7.20;100.00;96758.34;5012727;28;20060;-37
2023/12/23 05:54:14;;;;;;;0.28;0.17;;;7.90;99.90;;;7.14;100.00;96766.44;5008989;28;20063;-37
2023/12/23 05:56:39;;;;;;;0.70;0.20;;;7.80;99.90;;;7.13;100.00;96766.47;5015309;28;20044;-36
2023/12/23 05:59:05;;;;;;;1.50;0.20;;;7.80;99.90;;;7.08;100.00;96753.50;5011675;28;20038;-39
2023/12/23 06:01:31;;;;;;;1.10;0.40;;;7.80;99.90;;;6.99;100.00;96744.19;5011401;28;20026;-39
2023/12/23 06:03:56;;;;;;;1.52;0.28;;;7.70;99.90;;;7.00;100.00;96755.50;5008287;28;20064;-36
2023/12/23 06:06:22;;;;;;;0.43;0.17;;;7.70;99.90;;;6.99;100.00;96759.91;5014442;28;20035;-37
2023/12/23 06:08:48;;;;;;;1.25;0.20;;;7.70;99.90;;;6.99;100.00;96761.69;5013510;28;20130;-36
2023/12/23 06:11:14;;;;;;;0.30;0.10;;;7.70;99.90;;;6.96;100.00;96760.00;5012127;28;20056;-36
2023/12/23 06:13:40;;;;;;;1.42;0.20;;;7.60;99.90;;;6.94;100.00;96748.72;5012581;28;20029;-36
2023/12/23 06:16:07;;;;;;;3.38;0.20;;;7.70;99.90;;;6.98;100.00;96752.97;5009649;28;20457;-37
2023/12/23 06:18:33;;;;;;;0.17;0.17;;;7.70;99.90;;;6.96;100.00;96746.91;5012695;28;20041;-37
2023/12/23 06:20:59;;;;;;;0.47;0.30;;;7.60;99.90;;;6.94;100.00;96745.25;5014559;28;20044;-36
2023/12/23 06:23:25;;;;;;;0.35;0.22;;;7.60;99.90;;;6.91;100.00;96732.22;5010768;28;20037;-38
2023/12/23 06:25:50;;;;;;;1.65;0.40;;;7.60;99.90;;;6.90;100.00;96733.16;5009979;28;20041;-37
2023/12/23 06:28:16;;;;;;;0.03;0.03;;;7.60;99.90;;;6.85;100.00;96728.91;5013246;28;20482;-37
2023/12/23 06:30:42;;;;;;;0.85;0.20;;;7.60;99.90;;;6.85;100.00;96734.13;5010144;28;20382;-37
2023/12/23 06:33:08;;;;;;;0.65;0.20;;;7.50;99.90;;;6.88;100.00;96738.44;5010705;28;20371;-37
2023/12/23 06:35:33;;;;;;;1.17;0.25;;;7.50;99.90;;;6.85;100.00;96735.91;5013001;28;20033;-38
2023/12/23 06:37:59;;;;;;;0.20;0.20;;;7.60;99.90;;;6.80;100.00;96724.72;5012321;28;20631;-36
2023/12/23 06:40:28;;;;;;;0.08;0.08;;;7.50;99.90;;;6.85;100.00;96736.75;5011884;28;20032;-37
2023/12/23 06:42:54;;;;;;;0.10;0.10;;;7.50;99.90;;;6.88;100.00;96743.69;5014340;28;20029;-37
2023/12/23 06:45:20;;;;;;;0.57;0.20;;;7.50;99.90;;;6.88;100.00;96735.81;5012858;28;20080;-37
2023/12/23 06:47:46;;;;;;;0.50;0.30;;;7.60;99.90;;;6.87;100.00;96731.47;5010829;28;20397;-37
2023/12/23 06:50:11;;;;;;;0.68;0.10;;;7.50;99.90;;;6.94;100.00;96742.63;4994693;28;20041;-37
2023/12/23 06:52:37;;;;;;;0.10;0.10;;;7.60;99.90;;;6.93;100.00;96741.78;5007825;28;20540;-37
2023/12/23 06:55:03;;;;;;;0.28;0.13;;;7.60;99.90;;;6.96;100.00;96743.44;5016667;28;20025;-37
2023/12/23 06:57:29;;;;;;;1.05;0.10;;;7.60;99.90;;;6.86;100.00;96727.16;5015560;28;20116;-38
2023/12/23 06:59:56;;;;;;;0.60;0.20;;;7.60;99.90;;;6.84;100.00;96737.69;5010861;28;20030;-37
2023/12/23 07:02:22;;;;;;;0.98;0.20;;;7.50;99.90;;;6.79;100.00;96708.16;4993041;28;20033;-37
2023/12/23 07:04:48;;;;;;;0.20;0.20;;;7.50;99.90;;;6.83;100.00;96696.66;5012885;28;20231;-37
2023/12/23 07:07:14;;;;;;;0.40;0.20;;;7.50;99.90;;;6.83;100.00;96737.72;5009834;28;20026;-37
2023/12/23 07:09:40;;;;;;;1.02;0.20;;;7.50;99.90;;;6.86;100.00;96714.06;4990483;28;20041;-37
2023/12/23 07:12:06;;;;;;;0.20;0.15;;;7.50;99.90;;;6.84;100.00;96736.84;5009498;28;20029;-38
2023/12/23 07:14:31;;;;;;;0.10;0.10;;;7.50;99.90;;;6.82;100.00;96733.38;5008056;28;20533;-37
2023/12/23 07:16:57;;;;;;;0.75;0.13;;;7.50;99.90;;;6.83;100.00;96738.59;5004620;28;20033;-37
2023/12/23 07:19:23;;;;;;;0.10;0.10;;;7.50;99.90;;;6.83;100.00;96758.69;5008907;28;20591;-37
2023/12/23 07:21:53;;;;;;;0.05;0.05;;;7.50;99.90;;;6.88;100.00;96741.06;5008460;28;20076;-37
2023/12/23 07:24:19;;;;;;;1.48;0.20;;;7.50;99.90;;;6.89;100.00;96753.25;5007496;28;20034;-37
2023/12/23 07:26:45;;;;;;;0.17;0.10;;;7.50;99.90;;;6.95;100.00;96753.06;5008763;28;20034;-37
2023/12/23 07:29:11;;;;;;;1.17;0.20;;;7.60;99.90;;;6.91;100.00;96761.94;5011328;28;20529;-37
2023/12/23 07:31:37;;;;;;;0.10;0.10;;;7.60;99.90;;;6.87;100.00;96763.81;5009081;28;20043;-37
2023/12/23 07:34:03;;;;;;;0.17;0.10;;;7.60;99.90;;;6.86;100.00;96754.22;5011928;28;20045;-37
2023/12/23 07:36:28;;;;;;;0.45;0.10;;;7.60;99.90;;;6.92;100.00;96750.53;5009914;28;20029;-36
2023/12/23 07:38:54;;;;;;;0.38;0.15;;;7.60;99.90;;;6.99;100.00;96766.94;5007071;28;20033;-37
2023/12/23 07:41:20;;;;;;;0.20;0.10;;;7.60;99.90;;;7.00;100.00;96763.38;5008435;28;20084;-37
2023/12/23 07:43:46;;;;;;;1.17;0.28;;;7.60;99.90;;;6.95;100.00;96760.94;5009048;28;20029;-37
2023/12/23 07:46:12;;;;;;;1.05;0.20;;;7.70;99.90;;;7.04;100.00;96768.50;5006662;28;20033;-37
2023/12/23 07:48:37;;;;;;;0.50;0.30;;;7.70;99.90;;;7.08;100.00;96777.97;5006730;28;20161;-37
2023/12/23 07:51:07;;;;;;;0.15;0.10;;;7.70;99.90;;;7.12;100.00;96756.88;5005652;28;20441;-37
2023/12/23 07:53:33;;;;;;;0.47;0.10;;;7.80;99.90;;;7.23;100.00;96766.13;5007076;28;20133;-38
2023/12/23 07:55:59;;;;;;;2.25;0.30;;;7.90;99.90;;;7.28;100.00;96762.47;5011881;28;20029;-38
2023/12/23 07:58:25;;;;;;;0.82;0.40;;;7.90;99.90;;;7.35;100.00;96784.97;5012338;28;20037;-38
2023/12/23 08:00:51;;;;;;;4.18;0.22;;;8.00;99.90;;;7.35;100.00;96784.97;5010237;28;20033;-37
2023/12/23 08:03:17;;;;;;;0.50;0.20;;;8.00;99.90;;;7.37;100.00;96786.63;5007636;28;20033;-38
2023/12/23 08:05:43;;;;;;;0.88;0.10;;;8.00;99.90;;;7.34;100.00;96793.72;5010174;28;20080;-37
2023/12/23 08:08:10;;;;;;;0.22;0.20;;;8.00;99.90;;;7.33;100.00;96785.00;5010747;28;20042;-37
2023/12/23 08:10:38;;;;;;;0.20;0.13;;;8.00;99.90;;;7.39;100.00;96783.94;5010004;28;20029;-38
2023/12/23 08:13:03;;;;;;;0.20;0.13;;;8.00;99.90;;;7.37;100.00;96786.63;5011024;28;20033;-37
2023/12/23 08:15:29;;;;;;;0.45;0.20;;;8.00;99.90;;;7.35;100.00;96784.97;5012290;28;20056;-37
2023/12/23 08:17:55;;;;;;;0.20;0.20;;;8.00;99.90;;;7.28;100.00;96773.81;5005298;28;20044;-37
2023/12/23 08:20:20;;;;;;;0.17;0.17;;;8.00;99.90;;;7.40;100.00;96776.03;5010396;28;20402;-37
2023/12/23 08:22:46;;;;;;;0.03;0.03;;;8.10;99.90;;;7.38;100.00;96777.84;5008869;28;20517;-37
2023/12/23 08:25:12;;;;;;;2.05;0.20;;;8.10;99.90;;;7.44;100.00;96780.25;5012408;28;20033;-36
2023/12/23 08:27:38;;;;;;;1.27;0.10;;;8.10;99.90;;;7.47;100.00;96784.56;5010430;28;20508;-36
2023/12/23 08:30:08;;;;;;;0.60;0.20;;;8.10;99.90;;;7.51;100.00;96746.78;5008880;28;20040;-37
2023/12/23 08:32:34;;;;;;;0.77;0.30;;;8.20;99.90;;;7.55;100.00;96758.03;5006618;28;20033;-38
2023/12/23 08:35:02;;;;;;;0.10;0.10;;;8.20;99.90;;;7.57;100.00;96769.34;5010566;28;20112;-37
2023/12/23 08:37:27;;;;;;;0.00;0.00;;;8.30;99.90;;;7.59;100.00;96778.88;5010630;28;20029;-38
2023/12/23 08:39:54;;;;;;;0.40;0.20;;;8.30;99.90;;;7.56;100.00;96773.72;5005855;28;20037;-36
2023/12/23 08:42:20;;;;;;;0.03;0.03;;;8.30;99.90;;;7.70;100.00;96783.75;5010935;28;20056;-36
2023/12/23 08:44:47;;;;;;;0.20;0.20;;;8.30;99.90;;;7.59;100.00;96783.25;5009464;28;20521;-37
2023/12/23 08:47:13;;;;;;;0.15;0.10;;;8.30;99.90;;;7.61;100.00;96800.69;5010659;28;20533;-37
2023/12/23 08:49:39;;;;;;;0.10;0.10;;;8.30;99.90;;;7.57;100.00;96785.06;5009635;28;20906;-37
2023/12/23 08:52:06;;;;;;;0.40;0.17;;;8.30;99.90;;;7.68;100.00;96789.94;5010806;28;20033;-37
2023/12/23 08:54:32;;;;;;;0.25;0.10;;;8.30;99.90;;;7.70;100.00;96791.63;4988357;28;20080;-37
2023/12/23 08:56:58;;;;;;;0.60;0.20;;;8.40;99.90;;;7.76;100.00;96780.91;5005054;28;20514;-37
2023/12/23 08:59:23;;;;;;;0.03;0.03;;;8.40;99.90;;;7.67;100.00;96778.59;5006673;28;20105;-37
2023/12/23 09:01:49;;;;;;;0.10;0.08;;;8.50;99.90;;;7.80;100.00;96781.66;5005290;28;20059;-37
2023/12/23 09:04:16;;;;;;;0.10;0.00;;;8.50;99.90;;;7.81;100.00;96772.88;5005713;28;20127;-38
2023/12/23 09:06:42;;;;;;;0.10;0.10;;;8.50;99.90;;;7.80;100.00;96766.75;5006562;28;20037;-37
2023/12/23 09:09:07;;;;;;;0.10;0.10;;;8.50;99.90;;;7.84;100.00;96767.50;5004177;28;20030;-38
2023/12/23 09:11:33;;;;;;;0.08;0.08;;;8.50;99.90;;;7.87;100.00;96777.88;5005674;28;20041;-37
2023/12/23 09:13:59;;;;;;;0.10;0.10;;;8.60;99.90;;;7.93;100.00;96772.44;5008931;28;20033;-37
2023/12/23 09:16:24;;;;;;;0.13;0.10;;;8.60;99.90;;;7.97;100.00;96794.19;5008554;28;20469;-37
2023/12/23 09:18:50;;;;;;;0.10;0.10;;;8.60;99.90;;;7.84;100.00;96763.13;5000191;28;20876;-39
2023/12/23 09:21:16;;;;;;;0.10;0.10;;;8.70;99.90;;;7.82;100.00;96772.81;5007114;28;20385;-38
2023/12/23 09:23:41;;;;;;;0.10;0.10;;;8.70;99.90;;;8.01;100.00;96794.00;5005926;28;20124;-37
2023/12/23 09:26:07;;;;;;;0.10;0.10;;;8.70;99.90;;;8.03;100.00;96792.16;5009519;28;20198;-37
2023/12/23 09:28:33;;;;;;;0.20;0.20;;;8.70;99.90;;;8.00;100.00;96813.31;5009386;28;20040;-38
2023/12/23 09:30:58;;;;;;;0.03;0.03;;;8.70;99.90;;;8.04;100.00;96798.31;5008575;28;20081;-37
2023/12/23 09:33:24;;;;;;;0.08;0.08;;;8.70;99.90;;;8.01;100.00;96812.38;5006355;28;20041;-37
2023/12/23 09:35:50;;;;;;;0.20;0.10;;;8.70;99.90;;;8.03;100.00;96815.81;4992893;28;20048;-37
2023/12/23 09:38:15;;;;;;;0.20;0.20;;;8.70;99.90;;;8.01;100.00;96820.25;5008294;28;20033;-37
2023/12/23 09:40:41;;;;;;;0.03;0.03;;;8.70;99.90;;;7.98;100.00;96838.75;5004425;28;20497;-37
2023/12/23 09:43:08;;;;;;;0.98;0.10;;;8.60;99.90;;;7.96;100.00;96839.72;5011709;28;20060;-38
2023/12/23 09:45:36;;;;;;;0.20;0.20;;;8.70;99.90;;;7.98;100.00;96853.66;5007876;28;20416;-37
2023/12/23 09:48:03;;;;;;;0.32;0.10;;;8.60;99.90;;;7.97;100.00;96844.06;5008414;28;20052;-37
2023/12/23 09:50:28;;;;;;;0.40;0.10;;;8.60;99.90;;;7.99;100.00;96844.88;5007227;28;20037;-37
2023/12/23 09:52:59;;;;;;;0.20;0.10;;;8.60;99.90;;;8.06;100.00;96840.22;5010176;28;20580;-37
2023/12/23 09:55:25;;;;;;;0.30;0.00;;;8.70;99.90;;;8.04;100.00;96845.56;5006403;28;20382;-37
2023/12/23 09:57:51;;;;;;;0.00;0.00;;;8.70;99.90;;;8.08;100.00;96843.69;4989429;28;20072;-38
2023/12/23 10:00:17;;;;;;;0.10;0.10;;;8.70;99.90;;;8.14;100.00;96841.69;4997339;28;20398;-39
2023/12/23 10:02:43;;;;;;;0.05;0.05;;;8.80;99.90;;;8.08;100.00;96834.03;5012934;28;20115;-38
2023/12/23 10:05:09;;;;;;;0.10;0.10;;;8.80;99.90;;;8.05;100.00;96839.38;5014287;28;20034;-39
2023/12/23 10:07:34;;;;;;;0.10;0.10;;;8.80;99.90;;;8.13;100.00;96841.72;5017541;28;20056;-37
2023/12/23 10:10:00;;;;;;;0.20;0.10;;;8.80;99.90;;;8.11;100.00;96851.44;5011850;28;20037;-37
2023/12/23 10:12:26;;;;;;;0.05;0.05;;;8.80;99.90;;;8.11;100.00;96833.94;5016549;28;20029;-37
2023/12/23 10:14:52;;;;;;;0.10;0.10;;;8.90;99.90;;;8.19;100.00;96852.03;5000894;28;20489;-38
2023/12/23 10:17:18;;;;;;;0.25;0.10;;;8.90;99.90;;;8.22;100.00;96851.94;5011020;28;20060;-37
2023/12/23 10:19:46;;;;;;;0.10;0.10;;;8.90;99.90;;;8.28;100.00;96838.56;5013051;28;20036;-37